createdAt,value
2023-05-14T00:25:38.128Z,98200.34
2023-05-14T00:55:42.253Z,98168.31
2023-05-14T01:25:45.367Z,98154.22
2023-05-14T01:55:48.521Z,98151.53
2023-05-14T02:25:51.564Z,98142.00
2023-05-14T02:55:54.532Z,98125.28
2023-05-14T03:25:57.496Z,98116.50
2023-05-14T03:56:00.511Z,98115.13
2023-05-14T04:26:03.765Z,98119.97
2023-05-14T04:56:07.442Z,98129.66
2023-05-14T05:26:10.411Z,98136.69
2023-05-14T05:56:13.399Z,98155.16
2023-05-14T06:26:16.384Z,98153.97
2023-05-14T06:56:19.394Z,98147.34
2023-05-14T07:26:22.392Z,98150.84
2023-05-14T07:56:25.460Z,98128.56
2023-05-14T08:26:28.454Z,98144.44
2023-05-14T08:56:31.705Z,98116.94
2023-05-14T09:26:35.629Z,98095.84
2023-05-14T09:56:38.736Z,98072.56
2023-05-14T10:26:42.180Z,98070.78
2023-05-14T10:56:45.830Z,98042.53
2023-05-14T11:26:48.968Z,98006.09
2023-05-14T11:56:52.558Z,97981.41
2023-05-14T12:26:55.611Z,97957.38
2023-05-14T12:56:58.772Z,97918.56
2023-05-14T13:27:01.795Z,97884.09
2023-05-14T13:57:05.512Z,97846.13
2023-05-14T14:27:08.769Z,97821.38
2023-05-14T14:57:14.089Z,97798.25
2023-05-14T15:27:17.138Z,97831.31
2023-05-14T15:57:20.297Z,97834.72
2023-05-14T16:27:23.489Z,97808.44
2023-05-14T16:57:26.516Z,97823.81
2023-05-14T17:27:29.578Z,97831.44
2023-05-14T17:57:34.231Z,97842.13
2023-05-14T18:27:37.323Z,97847.34
2023-05-14T18:57:40.387Z,97872.13
2023-05-14T19:27:43.502Z,97863.28
2023-05-14T19:57:46.556Z,97868.59
2023-05-14T20:27:49.607Z,97851.31
2023-05-14T20:57:52.715Z,97813.97
2023-05-14T21:27:56.425Z,97813.88
2023-05-14T21:57:59.445Z,97811.34
2023-05-14T22:28:02.375Z,97813.16
2023-05-14T22:58:05.616Z,97782.81
2023-05-14T23:28:08.609Z,97777.81
2023-05-14T23:58:11.692Z,97746.34
